createdAt,value
2018-09-03T00:00:55.409Z,3.47
2018-09-03T00:03:25.231Z,3.57
2018-09-03T00:05:55.274Z,3.27
2018-09-03T00:08:25.113Z,4.00
2018-09-03T00:10:54.895Z,4.57
2018-09-03T00:13:24.798Z,5.03
2018-09-03T00:15:54.662Z,4.40
2018-09-03T00:18:24.741Z,3.60
2018-09-03T00:20:54.498Z,4.00
2018-09-03T00:23:24.258Z,3.60
2018-09-03T00:25:54.334Z,3.00
2018-09-03T00:28:24.143Z,3.53
2018-09-03T00:30:57.971Z,4.63
2018-09-03T00:33:33.009Z,4.43
2018-09-03T00:36:08.140Z,4.03
2018-09-03T00:38:43.103Z,3.47
2018-09-03T00:41:18.028Z,3.67
2018-09-03T00:43:53.018Z,3.60
2018-09-03T00:46:27.768Z,3.60
2018-09-03T00:48:57.592Z,4.53
2018-09-03T00:51:27.350Z,3.00
2018-09-03T00:53:57.202Z,3.63
2018-09-03T00:56:27.013Z,4.03
2018-09-03T00:58:56.874Z,2.73
2018-09-03T01:01:26.931Z,2.97
2018-09-03T01:03:57.040Z,3.50
2018-09-03T01:06:27.028Z,3.60
2018-09-03T01:08:56.789Z,4.83
2018-09-03T01:11:26.966Z,2.67
2018-09-03T01:13:57.402Z,3.50
2018-09-03T01:16:27.168Z,3.47
2018-09-03T01:18:57.757Z,5.10
2018-09-03T01:21:27.572Z,3.40
2018-09-03T01:23:57.309Z,5.30
2018-09-03T01:26:27.362Z,4.00
2018-09-03T01:28:57.195Z,3.23
2018-09-03T01:31:27.019Z,4.80
2018-09-03T01:33:56.904Z,3.37
2018-09-03T01:36:26.663Z,5.27
2018-09-03T01:38:56.507Z,4.27
2018-09-03T01:41:26.465Z,5.00
2018-09-03T01:43:56.232Z,4.73
2018-09-03T01:46:26.289Z,4.77
2018-09-03T01:48:56.367Z,2.87
2018-09-03T01:51:26.134Z,4.43
2018-09-03T01:53:55.859Z,4.97
2018-09-03T01:56:25.697Z,4.83
2018-09-03T01:58:55.422Z,5.10
2018-09-03T02:01:25.217Z,3.03
2018-09-03T02:03:55.418Z,5.03
2018-09-03T02:06:25.193Z,3.63
2018-09-03T02:08:54.962Z,4.00
2018-09-03T02:11:25.142Z,3.70
2018-09-03T02:13:55.099Z,5.97
2018-09-03T02:16:24.881Z,4.47
2018-09-03T02:18:54.925Z,3.73
2018-09-03T02:21:24.736Z,5.67
2018-09-03T02:23:54.477Z,4.00
2018-09-03T02:26:24.636Z,4.47
2018-09-03T02:28:54.535Z,3.50
2018-09-03T02:31:24.415Z,5.17
2018-09-03T02:33:54.888Z,4.67
2018-09-03T02:36:24.779Z,3.77
2018-09-03T02:38:54.642Z,3.97
2018-09-03T02:41:24.902Z,4.73
2018-09-03T02:43:54.669Z,4.13
2018-09-03T02:46:24.501Z,3.20
2018-09-03T02:48:54.698Z,4.37
2018-09-03T02:51:24.453Z,4.27
2018-09-03T02:53:54.283Z,4.73
2018-09-03T02:56:24.423Z,4.37
2018-09-03T02:58:54.196Z,5.30
2018-09-03T03:01:23.950Z,5.03
2018-09-03T03:03:54.059Z,3.90
2018-09-03T03:06:23.840Z,4.57
2018-09-03T03:08:53.838Z,3.70
2018-09-03T03:11:25.245Z,5.30
2018-09-03T03:13:55.485Z,3.80
2018-09-03T03:16:25.781Z,5.57
2018-09-03T03:18:55.559Z,4.27
2018-09-03T03:21:25.762Z,5.13
2018-09-03T03:23:55.496Z,9.60
2018-09-03T03:26:25.548Z,3.97
2018-09-03T03:28:55.639Z,2.97
2018-09-03T03:31:25.394Z,3.30
2018-09-03T03:33:56.057Z,5.30
2018-09-03T03:36:26.206Z,4.60
2018-09-03T03:38:55.978Z,6.03
2018-09-03T03:41:25.822Z,4.53
2018-09-03T03:43:56.015Z,4.73
2018-09-03T03:46:25.910Z,5.30
2018-09-03T03:48:55.689Z,4.17
2018-09-03T03:51:25.920Z,4.97
2018-09-03T03:53:55.661Z,5.23
2018-09-03T03:56:25.406Z,5.07
2018-09-03T03:58:55.623Z,3.80
2018-09-03T04:01:25.631Z,4.77
2018-09-03T04:03:55.470Z,4.83
2018-09-03T04:06:25.661Z,4.13
2018-09-03T04:08:55.486Z,5.87
2018-09-03T04:11:25.430Z,5.23
2018-09-03T04:13:55.501Z,4.50
2018-09-03T04:16:25.390Z,3.70
2018-09-03T04:18:55.133Z,5.60
2018-09-03T04:21:25.218Z,4.17
2018-09-03T04:23:55.003Z,4.53
2018-09-03T04:26:24.929Z,5.00
2018-09-03T04:28:55.043Z,4.30
2018-09-03T04:31:24.822Z,4.50
2018-09-03T04:33:54.576Z,3.57
2018-09-03T04:36:24.853Z,7.60
2018-09-03T04:38:54.710Z,6.53
2018-09-03T04:41:24.469Z,5.30
2018-09-03T04:43:54.593Z,4.50
2018-09-03T04:46:24.359Z,7.67
2018-09-03T04:48:54.472Z,4.63
2018-09-03T04:51:24.969Z,4.00
2018-09-03T04:53:54.836Z,7.03
2018-09-03T04:56:24.915Z,4.77
2018-09-03T04:59:06.291Z,4.83
2018-09-03T05:01:36.420Z,5.50
2018-09-03T05:04:06.751Z,7.43
2018-09-03T05:06:37.521Z,7.67
2018-09-03T05:09:08.009Z,5.17
2018-09-03T05:11:38.592Z,6.80
2018-09-03T05:14:09.389Z,6.63
2018-09-03T05:16:39.755Z,5.63
2018-09-03T05:19:10.236Z,4.17
2018-09-03T05:21:40.255Z,5.63
2018-09-03T05:24:10.747Z,6.03
2018-09-03T05:26:42.316Z,5.90
2018-09-03T05:29:12.339Z,5.33
2018-09-03T05:31:43.170Z,5.87
2018-09-03T05:34:13.617Z,4.80
2018-09-03T05:36:43.470Z,7.03
2018-09-03T05:39:14.152Z,4.43
2018-09-03T05:41:44.579Z,5.80
2018-09-03T05:44:14.716Z,4.37
2018-09-03T05:46:44.495Z,5.30
2018-09-03T05:49:14.996Z,6.17
2018-09-03T05:51:44.965Z,4.10
2018-09-03T05:54:15.091Z,4.80
2018-09-03T05:56:50.153Z,3.87
2018-09-03T05:59:25.562Z,5.17
2018-09-03T06:02:00.591Z,4.27
2018-09-03T06:04:33.879Z,6.43
2018-09-03T06:10:07.604Z,5.20
2018-09-03T06:12:40.200Z,7.07
2018-09-03T06:15:10.218Z,6.47
2018-09-03T06:17:40.220Z,6.67
2018-09-03T06:20:10.660Z,6.20
2018-09-03T06:22:40.676Z,4.67
2018-09-03T06:25:12.186Z,5.57
2018-09-03T06:27:42.470Z,8.20
2018-09-03T06:30:12.537Z,6.33
2018-09-03T06:32:43.032Z,6.50
2018-09-03T06:35:13.407Z,7.47
2018-09-03T06:37:43.471Z,7.23
2018-09-03T06:40:15.092Z,6.07
2018-09-03T06:42:44.949Z,6.50
2018-09-03T06:45:15.011Z,8.30
2018-09-03T06:47:45.455Z,6.27
2018-09-03T06:50:18.109Z,5.37
2018-09-03T06:52:49.682Z,6.30
2018-09-03T06:55:24.281Z,6.27
2018-09-03T06:57:56.958Z,6.67
2018-09-03T07:00:29.945Z,6.00
2018-09-03T07:03:05.857Z,7.50
2018-09-03T07:05:37.965Z,7.03
2018-09-03T07:08:08.003Z,6.40
2018-09-03T07:10:38.449Z,6.50
2018-09-03T07:13:08.735Z,8.17
2018-09-03T07:15:39.478Z,8.40
2018-09-03T07:18:09.455Z,7.50
2018-09-03T07:20:39.552Z,6.57
2018-09-03T07:23:09.417Z,7.37
2018-09-03T07:25:41.091Z,6.90
2018-09-03T07:28:11.210Z,6.97
2018-09-03T07:30:41.963Z,6.93
2018-09-03T07:33:12.130Z,5.80
2018-09-03T07:35:43.083Z,6.73
2018-09-03T07:38:12.937Z,6.87
2018-09-03T07:40:43.183Z,6.57
2018-09-03T07:43:13.307Z,10.67
2018-09-03T07:45:43.992Z,8.60
2018-09-03T07:48:14.042Z,6.97
2018-09-03T07:50:43.964Z,7.13
2018-09-03T07:53:13.889Z,7.50
2018-09-03T07:55:43.764Z,5.80
2018-09-03T07:58:14.484Z,7.30
2018-09-03T08:00:45.023Z,6.87
2018-09-03T08:03:15.477Z,6.60
2018-09-03T08:05:45.790Z,6.67
2018-09-03T08:08:16.008Z,6.93
2018-09-03T08:10:46.054Z,8.60
2018-09-03T08:13:21.351Z,7.73
2018-09-03T08:15:51.448Z,9.63
2018-09-03T08:18:32.449Z,7.70
2018-09-03T08:21:14.137Z,8.20
2018-09-03T08:23:51.653Z,8.27
2018-09-03T08:27:46.879Z,7.63
2018-09-03T08:30:25.890Z,8.87
2018-09-03T08:33:05.176Z,9.13
2018-09-03T08:35:44.172Z,8.10
2018-09-03T08:38:22.123Z,8.47
2018-09-03T08:41:02.049Z,12.43
2018-09-03T08:43:39.865Z,10.47
2018-09-03T08:46:16.485Z,11.17
2018-09-03T08:48:52.476Z,8.03
2018-09-03T08:51:25.459Z,8.73
2018-09-03T08:53:56.665Z,10.90
2018-09-03T08:56:34.317Z,10.57
2018-09-03T08:59:05.608Z,8.53
2018-09-03T09:01:37.283Z,9.40
2018-09-03T09:04:07.193Z,9.27
2018-09-03T09:06:37.323Z,7.77
2018-09-03T09:09:09.054Z,9.53
2018-09-03T09:11:38.955Z,10.43
2018-09-03T09:14:09.613Z,8.90
2018-09-03T09:16:42.993Z,8.67
2018-09-03T09:19:12.941Z,11.70
2018-09-03T09:21:43.090Z,9.20
2018-09-03T09:24:13.098Z,10.67
2018-09-03T09:26:43.295Z,7.40
2018-09-03T09:29:13.382Z,10.37
2018-09-03T09:31:47.389Z,8.30
2018-09-03T09:34:17.768Z,9.47
2018-09-03T09:36:47.941Z,8.40
2018-09-03T09:39:19.264Z,9.50
2018-09-03T09:41:49.935Z,10.53
2018-09-03T09:44:20.028Z,10.00
2018-09-03T09:46:53.141Z,11.77
2018-09-03T09:49:23.974Z,11.60
2018-09-03T09:51:54.115Z,10.57
2018-09-03T09:54:28.248Z,9.90
2018-09-03T09:56:58.832Z,8.30
2018-09-03T09:59:29.019Z,9.73
2018-09-03T10:01:59.106Z,11.43
2018-09-03T10:04:29.239Z,10.73
2018-09-03T10:06:59.347Z,12.73
2018-09-03T10:09:29.674Z,11.37
2018-09-03T10:12:00.327Z,13.00
2018-09-03T10:14:30.424Z,12.07
2018-09-03T10:17:04.748Z,13.07
2018-09-03T10:19:35.499Z,13.13
2018-09-03T10:22:07.937Z,12.40
2018-09-03T10:24:38.522Z,14.10
2018-09-03T10:27:14.443Z,14.70
2018-09-03T10:34:03.984Z,15.53
2018-09-03T10:36:34.680Z,11.57
2018-09-03T10:39:07.632Z,15.00
2018-09-03T10:41:40.347Z,12.60
2018-09-03T10:44:11.760Z,12.73
2018-09-03T10:46:43.323Z,14.43
2018-09-03T10:49:14.075Z,13.37
2018-09-03T10:51:45.689Z,13.33
2018-09-03T10:54:19.700Z,13.50
2018-09-03T10:56:56.156Z,14.07
2018-09-03T10:59:30.496Z,14.60
2018-09-03T11:02:04.581Z,12.17
2018-09-03T11:04:52.780Z,12.37
2018-09-03T11:07:26.268Z,12.30
2018-09-03T11:09:57.103Z,14.70
2018-09-03T11:12:28.320Z,14.60
2018-09-03T11:14:59.603Z,12.40
2018-09-03T11:17:34.229Z,11.73
2018-09-03T11:20:09.251Z,12.87
2018-09-03T11:22:41.700Z,12.00
2018-09-03T11:25:18.631Z,11.87
2018-09-03T11:27:51.774Z,12.50
2018-09-03T11:33:03.884Z,10.63
2018-09-03T11:35:36.139Z,13.30
2018-09-03T11:38:09.318Z,12.20
2018-09-03T11:40:40.159Z,13.77
2018-09-03T11:43:12.367Z,14.37
2018-09-03T11:45:43.940Z,15.60
2018-09-03T11:48:17.325Z,13.33
2018-09-03T11:50:55.164Z,13.07
2018-09-03T11:53:26.495Z,16.10
2018-09-03T11:55:57.774Z,11.70
2018-09-03T11:58:28.715Z,12.40
2018-09-03T12:01:01.792Z,11.83
2018-09-03T12:03:33.696Z,13.83
2018-09-03T12:06:04.596Z,11.47
2018-09-03T12:08:35.688Z,12.90
2018-09-03T12:11:08.428Z,12.57
2018-09-03T12:13:40.255Z,12.67
2018-09-03T12:16:14.471Z,12.37
2018-09-03T12:18:51.877Z,11.37
2018-09-03T12:21:23.305Z,13.30
2018-09-03T12:23:55.266Z,15.57
2018-09-03T12:26:27.715Z,13.43
2018-09-03T12:28:59.232Z,12.83
2018-09-03T12:31:31.333Z,12.50
2018-09-03T12:34:04.651Z,14.40
2018-09-03T12:36:36.116Z,13.87
2018-09-03T12:39:11.200Z,12.37
2018-09-03T12:41:43.626Z,13.57
2018-09-03T12:44:14.807Z,14.03
2018-09-03T12:46:46.814Z,12.93
2018-09-03T12:49:18.372Z,14.50
2018-09-03T12:51:49.225Z,17.27
2018-09-03T12:54:20.286Z,13.50
2018-09-03T12:56:52.256Z,14.27
2018-09-03T12:59:23.293Z,14.63
2018-09-03T13:01:54.045Z,12.87
2018-09-03T13:04:25.993Z,12.57
2018-09-03T13:06:58.334Z,13.70
2018-09-03T13:09:29.161Z,15.60
2018-09-03T13:12:00.253Z,15.27
2018-09-03T13:14:32.032Z,16.17
2018-09-03T13:17:03.221Z,14.63
2018-09-03T13:19:34.047Z,18.17
2018-09-03T13:22:05.899Z,19.50
2018-09-03T13:24:42.645Z,13.63
2018-09-03T13:27:15.617Z,15.73
2018-09-03T13:29:48.019Z,17.27
2018-09-03T13:32:19.292Z,19.87
2018-09-03T13:34:51.252Z,17.00
2018-09-03T13:37:26.184Z,16.83
2018-09-03T13:39:58.240Z,16.17
2018-09-03T13:42:29.956Z,17.00
2018-09-03T13:45:01.052Z,17.63
2018-09-03T13:47:32.204Z,17.23
2018-09-03T13:50:06.972Z,15.77
2018-09-03T13:52:37.573Z,14.63
2018-09-03T13:55:09.494Z,15.67
2018-09-03T13:57:41.324Z,20.67
2018-09-03T14:00:13.943Z,15.30
2018-09-03T14:02:45.012Z,17.77
2018-09-03T14:05:16.914Z,14.90
2018-09-03T14:07:49.149Z,18.43
2018-09-03T14:10:21.077Z,22.83
2018-09-03T14:12:53.568Z,20.40
2018-09-03T14:15:24.418Z,17.00
2018-09-03T14:17:56.683Z,15.63
2018-09-03T14:20:27.656Z,22.07
2018-09-03T14:23:00.349Z,19.70
2018-09-03T14:25:33.661Z,19.70
2018-09-03T14:28:06.278Z,19.73
2018-09-03T14:30:36.971Z,20.47
2018-09-03T14:33:07.904Z,20.20
2018-09-03T14:35:39.775Z,19.47
2018-09-03T14:38:10.422Z,25.13
2018-09-03T14:40:41.163Z,21.70
2018-09-03T14:43:13.315Z,20.50
2018-09-03T14:45:44.504Z,24.67
2018-09-03T14:48:15.491Z,20.73
2018-09-03T14:50:46.388Z,23.57
2018-09-03T14:53:17.139Z,20.73
2018-09-03T14:55:47.970Z,21.23
2018-09-03T14:58:20.017Z,21.27
2018-09-03T15:00:52.432Z,19.90
2018-09-03T15:03:31.076Z,20.57
2018-09-03T15:06:01.593Z,18.27
2018-09-03T15:08:34.446Z,20.80
2018-09-03T15:11:06.066Z,20.37
2018-09-03T15:13:36.764Z,20.50
2018-09-03T15:16:07.585Z,22.73
2018-09-03T15:18:38.655Z,19.13
2018-09-03T15:21:09.426Z,19.43
2018-09-03T15:23:40.844Z,18.67
2018-09-03T15:26:11.980Z,23.10
2018-09-03T15:28:42.916Z,22.03
2018-09-03T15:31:14.831Z,21.67
2018-09-03T15:33:46.420Z,19.93
2018-09-03T15:36:17.961Z,19.90
2018-09-03T15:38:48.976Z,21.47
2018-09-03T15:41:19.587Z,21.57
2018-09-03T15:43:50.570Z,28.20
2018-09-03T15:46:21.295Z,22.27
2018-09-03T15:48:52.138Z,22.77
2018-09-03T15:51:22.972Z,22.20
2018-09-03T15:53:55.231Z,22.23
2018-09-03T15:56:26.009Z,21.10
2018-09-03T15:59:00.651Z,23.13
2018-09-03T16:01:31.363Z,23.57
2018-09-03T16:04:05.451Z,19.67
2018-09-03T16:06:36.054Z,22.20
2018-09-03T16:09:11.470Z,24.37
2018-09-03T16:11:42.564Z,20.37
2018-09-03T16:14:14.461Z,19.73
2018-09-03T16:16:45.182Z,21.40
2018-09-03T16:19:15.971Z,19.83
2018-09-03T16:21:46.596Z,20.43
2018-09-03T16:24:17.784Z,23.87
2018-09-03T16:26:49.858Z,23.27
2018-09-03T16:29:21.738Z,21.47
2018-09-03T16:31:53.296Z,20.97
2018-09-03T16:34:24.480Z,21.23
2018-09-03T16:36:56.463Z,20.70
2018-09-03T16:39:27.467Z,27.87
2018-09-03T16:41:58.950Z,22.57
2018-09-03T16:44:32.460Z,17.73
2018-09-03T16:47:03.195Z,21.37
2018-09-03T16:49:33.911Z,23.87
2018-09-03T16:52:05.072Z,26.13
2018-09-03T16:54:35.803Z,22.20
2018-09-03T16:57:07.006Z,21.77
2018-09-03T16:59:38.520Z,20.30
2018-09-03T17:02:09.813Z,21.33
2018-09-03T17:04:40.713Z,23.33
2018-09-03T17:07:11.620Z,22.93
2018-09-03T17:09:43.715Z,26.03
2018-09-03T17:12:14.495Z,23.13
2018-09-03T17:14:45.750Z,22.40
2018-09-03T17:17:16.889Z,23.60
2018-09-03T17:19:48.212Z,19.47
2018-09-03T17:22:19.557Z,20.70
2018-09-03T17:24:51.762Z,24.13
2018-09-03T17:27:23.115Z,21.60
2018-09-03T17:29:55.712Z,22.00
2018-09-03T17:32:26.494Z,21.20
2018-09-03T17:34:58.079Z,18.47
2018-09-03T17:37:29.538Z,24.23
2018-09-03T17:40:05.309Z,24.00
2018-09-03T17:42:37.197Z,23.20
2018-09-03T17:45:13.245Z,23.63
2018-09-03T17:47:44.416Z,23.17
2018-09-03T17:50:15.763Z,22.87
2018-09-03T17:52:46.378Z,28.97
2018-09-03T17:55:19.043Z,25.73
2018-09-03T17:57:51.099Z,21.47
2018-09-03T18:00:22.515Z,25.67
2018-09-03T18:02:56.628Z,28.60
2018-09-03T18:05:27.260Z,29.00
2018-09-03T18:07:58.328Z,27.47
2018-09-03T18:10:31.617Z,30.23
2018-09-03T18:13:03.219Z,29.37
2018-09-03T18:15:34.912Z,39.97
2018-09-03T18:18:07.309Z,36.37
2018-09-03T18:20:39.235Z,41.27
2018-09-03T18:23:10.538Z,40.53
2018-09-03T18:25:43.554Z,52.13
2018-09-03T18:28:14.493Z,62.77
2018-09-03T18:30:46.191Z,45.60
2018-09-03T18:33:17.092Z,49.27
2018-09-03T18:35:48.302Z,45.30
2018-09-03T18:38:19.300Z,51.17
2018-09-03T18:40:49.995Z,45.27
2018-09-03T18:43:20.651Z,46.87
2018-09-03T18:45:51.648Z,59.70
2018-09-03T18:48:22.264Z,59.37
2018-09-03T18:50:53.551Z,54.83
2018-09-03T18:53:24.258Z,50.40
2018-09-03T18:55:56.274Z,49.17
2018-09-03T18:58:27.372Z,54.13
2018-09-03T19:00:58.331Z,46.83
2018-09-03T19:03:28.848Z,49.20
2018-09-03T19:06:00.680Z,48.27
2018-09-03T19:08:31.724Z,51.43
2018-09-03T19:11:05.762Z,54.73
2018-09-03T19:13:37.843Z,50.33
2018-09-03T19:16:09.398Z,49.40
2018-09-03T19:18:41.013Z,50.57
2018-09-03T19:21:13.647Z,50.07
2018-09-03T19:23:45.202Z,48.17
2018-09-03T19:26:17.922Z,46.13
2018-09-03T19:28:50.141Z,50.00
2018-09-03T19:31:21.562Z,52.97
2018-09-03T19:33:52.720Z,47.37
2018-09-03T19:36:23.733Z,48.00
2018-09-03T19:38:54.271Z,44.17
2018-09-03T19:41:25.005Z,48.23
2018-09-03T19:43:56.160Z,49.17
2018-09-03T19:46:27.752Z,50.27
2018-09-03T19:48:59.158Z,46.13
2018-09-03T19:51:31.141Z,43.47
2018-09-03T19:54:03.906Z,48.57
2018-09-03T19:56:36.402Z,47.60
2018-09-03T19:59:12.194Z,46.30
2018-09-03T20:01:44.559Z,47.67
2018-09-03T20:04:15.229Z,48.87
2018-09-03T20:06:47.887Z,44.23
2018-09-03T20:09:19.953Z,48.33
2018-09-03T20:11:51.413Z,48.30
2018-09-03T20:14:24.827Z,45.80
2018-09-03T20:16:55.687Z,45.40
2018-09-03T20:19:26.788Z,47.17
2018-09-03T20:21:59.906Z,48.10
2018-09-03T20:24:31.991Z,49.53
2018-09-03T20:27:03.585Z,53.40
2018-09-03T20:29:37.269Z,50.57
2018-09-03T20:32:08.500Z,49.40
2018-09-03T20:34:41.215Z,51.60
2018-09-03T20:37:12.349Z,49.87
2018-09-03T20:39:47.129Z,47.77
2018-09-03T20:42:17.778Z,51.37
2018-09-03T20:44:48.270Z,48.37
2018-09-03T20:47:19.038Z,47.67
2018-09-03T20:49:49.754Z,54.87
2018-09-03T20:52:20.842Z,49.83
2018-09-03T20:54:52.722Z,54.10
2018-09-03T20:57:23.683Z,51.10
2018-09-03T20:59:55.309Z,52.33
2018-09-03T21:02:26.798Z,51.70
2018-09-03T21:04:58.226Z,47.83
2018-09-03T21:07:31.031Z,47.77
2018-09-03T21:10:03.415Z,52.23
2018-09-03T21:12:35.054Z,53.33
2018-09-03T21:15:08.896Z,55.87
2018-09-03T21:17:39.702Z,49.50
2018-09-03T21:20:10.854Z,52.20
2018-09-03T21:22:41.646Z,49.60
2018-09-03T21:25:15.962Z,49.03
2018-09-03T21:27:46.536Z,48.07
2018-09-03T21:30:18.605Z,52.90
2018-09-03T21:32:49.185Z,51.53
2018-09-03T21:35:21.530Z,52.43
2018-09-03T21:37:52.384Z,54.47
2018-09-03T21:40:22.991Z,56.63
2018-09-03T21:42:53.738Z,52.10
2018-09-03T21:45:24.924Z,55.53
2018-09-03T21:47:56.578Z,55.57
2018-09-03T21:50:27.080Z,52.97
2018-09-03T21:52:58.107Z,53.30
2018-09-03T21:55:28.889Z,53.17
2018-09-03T21:57:59.730Z,52.20
2018-09-03T22:00:30.798Z,51.53
2018-09-03T22:03:01.944Z,54.20
2018-09-03T22:05:32.768Z,55.47
2018-09-03T22:08:04.096Z,53.47
2018-09-03T22:10:35.416Z,51.83
2018-09-03T22:13:07.448Z,51.73
2018-09-03T22:15:39.865Z,52.83
2018-09-03T22:18:11.335Z,56.77
2018-09-03T22:20:43.136Z,56.97
2018-09-03T22:23:13.825Z,55.90
2018-09-03T22:25:45.671Z,54.50
2018-09-03T22:28:16.276Z,56.77
2018-09-03T22:30:46.626Z,53.93
2018-09-03T22:33:18.169Z,58.03
2018-09-03T22:35:49.409Z,55.27
2018-09-03T22:38:20.108Z,54.87
2018-09-03T22:40:50.947Z,53.37
2018-09-03T22:43:21.390Z,52.97
2018-09-03T22:45:52.044Z,59.30
2018-09-03T22:48:22.519Z,55.10
2018-09-03T22:50:54.182Z,60.83
2018-09-03T22:53:25.457Z,57.70
2018-09-03T22:55:56.537Z,57.83
2018-09-03T22:58:27.127Z,59.70
2018-09-03T23:00:58.259Z,59.20
2018-09-03T23:03:29.960Z,59.90
2018-09-03T23:06:01.388Z,54.93
2018-09-03T23:08:32.167Z,57.00
2018-09-03T23:11:02.988Z,62.17
2018-09-03T23:13:33.508Z,60.57
2018-09-03T23:16:04.311Z,72.47
2018-09-03T23:18:35.640Z,72.53
2018-09-03T23:21:06.511Z,66.47
2018-09-03T23:23:38.179Z,57.83
2018-09-03T23:26:08.826Z,63.87
2018-09-03T23:28:39.439Z,59.67
2018-09-03T23:31:10.707Z,62.10
2018-09-03T23:33:41.527Z,60.17
2018-09-03T23:36:12.055Z,62.53
2018-09-03T23:38:42.459Z,59.73
2018-09-03T23:41:13.391Z,59.43
2018-09-03T23:43:43.966Z,56.20
2018-09-03T23:46:14.526Z,58.93
2018-09-03T23:48:45.098Z,62.13
2018-09-03T23:51:15.631Z,58.90
2018-09-03T23:53:46.188Z,56.47
2018-09-03T23:56:16.650Z,65.27
2018-09-03T23:58:47.070Z,58.63
